sensor_id;sensor_type;location;lat;lon;timestamp;pressure;altitude;pressure_sealevel;temperature;humidity
27294;BME280;14785;52.556;13.430;2023-05-07T00:00:09;101396.41;;;11.42;100.00
27294;BME280;14785;52.556;13.430;2023-05-07T00:02:35;101402.66;;;11.23;100.00
27294;BME280;14785;52.556;13.430;2023-05-07T00:05:01;101399.94;;;11.33;100.00
27294;BME280;14785;52.556;13.430;2023-05-07T00:07:27;101388.00;;;11.66;100.00
27294;BME280;14785;52.556;13.430;2023-05-07T00:09:53;101397.03;;;11.26;100.00
27294;BME280;14785;52.556;13.430;2023-05-07T00:12:18;101404.41;;;11.51;100.00
27294;BME280;14785;52.556;13.430;2023-05-07T00:14:44;101400.06;;;11.41;100.00
27294;BME280;14785;52.556;13.430;2023-05-07T00:17:10;101394.31;;;11.45;100.00
27294;BME280;14785;52.556;13.430;2023-05-07T00:19:36;101388.19;;;11.35;100.00
27294;BME280;14785;52.556;13.430;2023-05-07T00:22:01;101392.63;;;11.64;100.00
27294;BME280;14785;52.556;13.430;2023-05-07T00:24:26;101389.38;;;11.70;100.00
27294;BME280;14785;52.556;13.430;2023-05-07T00:26:52;101380.31;;;11.90;100.00
27294;BME280;14785;52.556;13.430;2023-05-07T00:29:18;101391.34;;;11.68;100.00
27294;BME280;14785;52.556;13.430;2023-05-07T00:31:43;101390.09;;;11.72;100.00
27294;BME280;14785;52.556;13.430;2023-05-07T00:34:08;101389.38;;;11.70;100.00
27294;BME280;14785;52.556;13.430;2023-05-07T00:36:34;101390.84;;;11.35;100.00
27294;BME280;14785;52.556;13.430;2023-05-07T00:39:00;101387.63;;;11.41;100.00
27294;BME280;14785;52.556;13.430;2023-05-07T00:41:27;101382.97;;;11.63;100.00
27294;BME280;14785;52.556;13.430;2023-05-07T00:43:52;101386.84;;;11.78;100.00
27294;BME280;14785;52.556;13.430;2023-05-07T00:46:20;101383.25;;;11.40;100.00
27294;BME280;14785;52.556;13.430;2023-05-07T00:48:45;101392.44;;;11.19;100.00
27294;BME280;14785;52.556;13.430;2023-05-07T00:51:11;101397.00;;;11.45;100.00
27294;BME280;14785;52.556;13.430;2023-05-07T00:53:37;101392.53;;;11.36;100.00
27294;BME280;14785;52.556;13.430;2023-05-07T00:56:03;101390.47;;;11.77;100.00
27294;BME280;14785;52.556;13.430;2023-05-07T00:58:29;101389.22;;;11.71;100.00
27294;BME280;14785;52.556;13.430;2023-05-07T01:00:55;101378.78;;;11.31;100.00
27294;BME280;14785;52.556;13.430;2023-05-07T01:03:20;101389.50;;;11.58;100.00
27294;BME280;14785;52.556;13.430;2023-05-07T01:05:47;101394.13;;;11.76;100.00
27294;BME280;14785;52.556;13.430;2023-05-07T01:08:14;101392.81;;;11.33;100.00
27294;BME280;14785;52.556;13.430;2023-05-07T01:10:40;101384.56;;;11.17;100.00
27294;BME280;14785;52.556;13.430;2023-05-07T01:13:09;101382.81;;;11.54;100.00
27294;BME280;14785;52.556;13.430;2023-05-07T01:15:35;101387.53;;;11.24;100.00
27294;BME280;14785;52.556;13.430;2023-05-07T01:18:01;101385.44;;;11.08;100.00
27294;BME280;14785;52.556;13.430;2023-05-07T01:20:27;101388.53;;;11.13;100.00
27294;BME280;14785;52.556;13.430;2023-05-07T01:22:53;101393.69;;;11.05;100.00
27294;BME280;14785;52.556;13.430;2023-05-07T01:25:19;101401.81;;;10.75;100.00
27294;BME280;14785;52.556;13.430;2023-05-07T01:27:45;101401.81;;;10.94;100.00
27294;BME280;14785;52.556;13.430;2023-05-07T01:30:11;101401.25;;;11.00;100.00
27294;BME280;14785;52.556;13.430;2023-05-07T01:32:41;101406.53;;;11.38;100.00
27294;BME280;14785;52.556;13.430;2023-05-07T01:35:11;101392.38;;;11.38;100.00
27294;BME280;14785;52.556;13.430;2023-05-07T01:37:39;101395.31;;;11.44;100.00
27294;BME280;14785;52.556;13.430;2023-05-07T01:40:05;101400.69;;;11.06;100.00
27294;BME280;14785;52.556;13.430;2023-05-07T01:42:32;101403.53;;;10.95;100.00
27294;BME280;14785;52.556;13.430;2023-05-07T01:44:58;101400.56;;;10.98;100.00
27294;BME280;14785;52.556;13.430;2023-05-07T01:47:24;101401.38;;;11.27;100.00
27294;BME280;14785;52.556;13.430;2023-05-07T01:49:50;101411.06;;;11.09;100.00
27294;BME280;14785;52.556;13.430;2023-05-07T01:52:16;101404.81;;;11.56;100.00
27294;BME280;14785;52.556;13.430;2023-05-07T01:54:41;101397.69;;;11.94;100.00
27294;BME280;14785;52.556;13.430;2023-05-07T01:57:07;101401.41;;;11.74;100.00
27294;BME280;14785;52.556;13.430;2023-05-07T01:59:33;101400.44;;;11.55;100.00
27294;BME280;14785;52.556;13.430;2023-05-07T02:01:58;101393.38;;;12.20;100.00
27294;BME280;14785;52.556;13.430;2023-05-07T02:04:24;101400.94;;;11.41;100.00
27294;BME280;14785;52.556;13.430;2023-05-07T02:06:49;101401.25;;;11.19;100.00
27294;BME280;14785;52.556;13.430;2023-05-07T02:09:15;101396.22;;;11.16;100.00
27294;BME280;14785;52.556;13.430;2023-05-07T02:11:41;101406.31;;;11.22;100.00
27294;BME280;14785;52.556;13.430;2023-05-07T02:14:06;101412.13;;;11.45;100.00
27294;BME280;14785;52.556;13.430;2023-05-07T02:16:32;101413.53;;;11.30;100.00
27294;BME280;14785;52.556;13.430;2023-05-07T02:18:57;101421.03;;;11.07;100.00
27294;BME280;14785;52.556;13.430;2023-05-07T02:21:24;101419.19;;;11.17;100.00
27294;BME280;14785;52.556;13.430;2023-05-07T02:23:50;101417.25;;;11.19;100.00
27294;BME280;14785;52.556;13.430;2023-05-07T02:26:15;101421.97;;;11.44;100.00
27294;BME280;14785;52.556;13.430;2023-05-07T02:28:41;101421.66;;;11.47;100.00
27294;BME280;14785;52.556;13.430;2023-05-07T02:31:06;101418.28;;;11.45;100.00
27294;BME280;14785;52.556;13.430;2023-05-07T02:33:32;101418.53;;;11.61;100.00
27294;BME280;14785;52.556;13.430;2023-05-07T02:36:07;101420.78;;;11.76;100.00
27294;BME280;14785;52.556;13.430;2023-05-07T02:38:34;101424.47;;;11.46;100.00
27294;BME280;14785;52.556;13.430;2023-05-07T02:40:59;101427.59;;;11.22;100.00
27294;BME280;14785;52.556;13.430;2023-05-07T02:43:24;101416.22;;;11.39;100.00
27294;BME280;14785;52.556;13.430;2023-05-07T02:46:06;101420.81;;;11.37;100.00
27294;BME280;14785;52.556;13.430;2023-05-07T02:48:32;101425.34;;;11.27;100.00
27294;BME280;14785;52.556;13.430;2023-05-07T02:50:58;101425.59;;;11.43;100.00
27294;BME280;14785;52.556;13.430;2023-05-07T02:53:24;101434.31;;;11.17;100.00
27294;BME280;14785;52.556;13.430;2023-05-07T02:55:56;101432.19;;;11.39;100.00
27294;BME280;14785;52.556;13.430;2023-05-07T02:58:21;101430.22;;;11.41;100.00
27294;BME280;14785;52.556;13.430;2023-05-07T03:00:47;101435.78;;;11.57;100.00
27294;BME280;14785;52.556;13.430;2023-05-07T03:03:13;101437.47;;;11.58;100.00
27294;BME280;14785;52.556;13.430;2023-05-07T03:05:38;101442.59;;;11.23;100.00
27294;BME280;14785;52.556;13.430;2023-05-07T03:08:04;101441.56;;;11.53;100.00
27294;BME280;14785;52.556;13.430;2023-05-07T03:10:30;101442.25;;;11.65;100.00
27294;BME280;14785;52.556;13.430;2023-05-07T03:12:55;101442.03;;;11.95;100.00
27294;BME280;14785;52.556;13.430;2023-05-07T03:15:21;101441.81;;;11.79;100.00
27294;BME280;14785;52.556;13.430;2023-05-07T03:17:47;101443.03;;;11.84;100.00
27294;BME280;14785;52.556;13.430;2023-05-07T03:20:13;101436.66;;;11.48;100.00
27294;BME280;14785;52.556;13.430;2023-05-07T03:22:38;101447.13;;;11.79;100.00
27294;BME280;14785;52.556;13.430;2023-05-07T03:25:05;101437.38;;;11.41;100.00
27294;BME280;14785;52.556;13.430;2023-05-07T03:27:30;101445.81;;;11.17;100.00
27294;BME280;14785;52.556;13.430;2023-05-07T03:29:56;101447.56;;;11.74;100.00
27294;BME280;14785;52.556;13.430;2023-05-07T03:32:21;101455.59;;;11.65;100.00
27294;BME280;14785;52.556;13.430;2023-05-07T03:34:47;101456.59;;;11.44;100.00
27294;BME280;14785;52.556;13.430;2023-05-07T03:37:12;101450.81;;;11.68;100.00
27294;BME280;14785;52.556;13.430;2023-05-07T03:39:37;101455.50;;;11.93;100.00
27294;BME280;14785;52.556;13.430;2023-05-07T03:42:03;101446.22;;;11.41;100.00
27294;BME280;14785;52.556;13.430;2023-05-07T03:44:28;101442.81;;;11.58;100.00
27294;BME280;14785;52.556;13.430;2023-05-07T03:46:54;101456.19;;;10.92;100.00
27294;BME280;14785;52.556;13.430;2023-05-07T03:49:20;101458.41;;;11.34;100.00
27294;BME280;14785;52.556;13.430;2023-05-07T03:51:46;101453.38;;;11.12;100.00
27294;BME280;14785;52.556;13.430;2023-05-07T03:54:11;101459.28;;;11.16;100.00
27294;BME280;14785;52.556;13.430;2023-05-07T03:56:37;101461.81;;;10.98;100.00
27294;BME280;14785;52.556;13.430;2023-05-07T03:59:02;101468.81;;;11.28;100.00
27294;BME280;14785;52.556;13.430;2023-05-07T04:01:28;101465.84;;;11.31;100.00
27294;BME280;14785;52.556;13.430;2023-05-07T04:03:53;101464.59;;;11.06;100.00
27294;BME280;14785;52.556;13.430;2023-05-07T04:06:19;101459.53;;;10.84;100.00
27294;BME280;14785;52.556;13.430;2023-05-07T04:08:44;101459.69;;;10.92;100.00
27294;BME280;14785;52.556;13.430;2023-05-07T04:11:10;101464.03;;;10.93;100.00
27294;BME280;14785;52.556;13.430;2023-05-07T04:13:35;101469.63;;;11.09;100.00
27294;BME280;14785;52.556;13.430;2023-05-07T04:16:02;101463.34;;;11.01;100.00
27294;BME280;14785;52.556;13.430;2023-05-07T04:18:28;101471.63;;;11.07;100.00
27294;BME280;14785;52.556;13.430;2023-05-07T04:20:54;101468.91;;;10.88;100.00
27294;BME280;14785;52.556;13.430;2023-05-07T04:23:19;101471.19;;;11.12;100.00
27294;BME280;14785;52.556;13.430;2023-05-07T04:25:45;101470.19;;;11.32;100.00
27294;BME280;14785;52.556;13.430;2023-05-07T04:28:11;101476.94;;;11.26;100.00
27294;BME280;14785;52.556;13.430;2023-05-07T04:30:37;101474.41;;;11.15;100.00
27294;BME280;14785;52.556;13.430;2023-05-07T04:33:02;101471.00;;;11.51;100.00
27294;BME280;14785;52.556;13.430;2023-05-07T04:35:28;101478.63;;;11.18;100.00
27294;BME280;14785;52.556;13.430;2023-05-07T04:37:53;101478.75;;;11.07;100.00
27294;BME280;14785;52.556;13.430;2023-05-07T04:40:18;101483.66;;;10.92;100.00
27294;BME280;14785;52.556;13.430;2023-05-07T04:42:44;101484.94;;;11.07;100.00
27294;BME280;14785;52.556;13.430;2023-05-07T04:45:09;101483.38;;;11.14;100.00
27294;BME280;14785;52.556;13.430;2023-05-07T04:47:35;101491.88;;;10.80;100.00
27294;BME280;14785;52.556;13.430;2023-05-07T04:50:01;101498.78;;;11.39;100.00
27294;BME280;14785;52.556;13.430;2023-05-07T04:52:26;101487.28;;;11.58;100.00
27294;BME280;14785;52.556;13.430;2023-05-07T04:54:52;101483.91;;;10.99;100.00
27294;BME280;14785;52.556;13.430;2023-05-07T04:57:17;101494.31;;;10.92;100.00
27294;BME280;14785;52.556;13.430;2023-05-07T04:59:43;101497.25;;;11.27;100.00
27294;BME280;14785;52.556;13.430;2023-05-07T05:02:10;101495.00;;;11.51;100.00
27294;BME280;14785;52.556;13.430;2023-05-07T05:04:36;101500.31;;;11.51;100.00
27294;BME280;14785;52.556;13.430;2023-05-07T05:07:02;101508.03;;;11.74;100.00
27294;BME280;14785;52.556;13.430;2023-05-07T05:09:29;101503.81;;;11.61;100.00
27294;BME280;14785;52.556;13.430;2023-05-07T05:11:55;101507.75;;;11.57;100.00
27294;BME280;14785;52.556;13.430;2023-05-07T05:14:20;101510.13;;;11.80;100.00
27294;BME280;14785;52.556;13.430;2023-05-07T05:16:45;101504.34;;;11.84;100.00
27294;BME280;14785;52.556;13.430;2023-05-07T05:19:11;101506.34;;;11.15;100.00
27294;BME280;14785;52.556;13.430;2023-05-07T05:21:36;101510.84;;;11.53;100.00
27294;BME280;14785;52.556;13.430;2023-05-07T05:24:01;101511.13;;;11.59;100.00
27294;BME280;14785;52.556;13.430;2023-05-07T05:26:27;101516.31;;;11.71;100.00
27294;BME280;14785;52.556;13.430;2023-05-07T05:28:53;101507.13;;;12.02;100.00
27294;BME280;14785;52.556;13.430;2023-05-07T05:31:18;101507.56;;;12.34;100.00
27294;BME280;14785;52.556;13.430;2023-05-07T05:33:43;101507.34;;;12.18;100.00
27294;BME280;14785;52.556;13.430;2023-05-07T05:36:09;101511.19;;;12.06;100.00
27294;BME280;14785;52.556;13.430;2023-05-07T05:38:35;101500.59;;;12.23;100.00
27294;BME280;14785;52.556;13.430;2023-05-07T05:41:00;101506.22;;;12.20;100.00
27294;BME280;14785;52.556;13.430;2023-05-07T05:43:26;101500.41;;;12.61;100.00
27294;BME280;14785;52.556;13.430;2023-05-07T05:45:51;101502.59;;;12.12;100.00
27294;BME280;14785;52.556;13.430;2023-05-07T05:48:17;101510.88;;;12.09;100.00
27294;BME280;14785;52.556;13.430;2023-05-07T05:50:42;101512.91;;;12.34;100.00
27294;BME280;14785;52.556;13.430;2023-05-07T05:53:07;101507.19;;;12.29;100.00
27294;BME280;14785;52.556;13.430;2023-05-07T05:55:33;101509.75;;;12.48;100.00
27294;BME280;14785;52.556;13.430;2023-05-07T05:58:00;101521.91;;;12.23;100.00
27294;BME280;14785;52.556;13.430;2023-05-07T06:00:26;101520.38;;;12.30;100.00
27294;BME280;14785;52.556;13.430;2023-05-07T06:02:51;101521.84;;;12.42;100.00
27294;BME280;14785;52.556;13.430;2023-05-07T06:05:17;101521.19;;;12.31;100.00
27294;BME280;14785;52.556;13.430;2023-05-07T06:07:43;101535.28;;;12.50;100.00
27294;BME280;14785;52.556;13.430;2023-05-07T06:10:08;101527.63;;;12.65;100.00
27294;BME280;14785;52.556;13.430;2023-05-07T06:12:34;101525.19;;;12.54;100.00
27294;BME280;14785;52.556;13.430;2023-05-07T06:14:59;101524.00;;;13.28;100.00
27294;BME280;14785;52.556;13.430;2023-05-07T06:17:25;101534.75;;;12.74;100.00
27294;BME280;14785;52.556;13.430;2023-05-07T06:19:51;101531.28;;;12.91;100.00
27294;BME280;14785;52.556;13.430;2023-05-07T06:22:16;101525.16;;;13.08;100.00
27294;BME280;14785;52.556;13.430;2023-05-07T06:24:42;101533.97;;;12.64;100.00
27294;BME280;14785;52.556;13.430;2023-05-07T06:27:08;101533.50;;;12.41;100.00
27294;BME280;14785;52.556;13.430;2023-05-07T06:29:33;101536.31;;;12.94;100.00
27294;BME280;14785;52.556;13.430;2023-05-07T06:32:11;101532.66;;;12.68;100.00
27294;BME280;14785;52.556;13.430;2023-05-07T06:34:38;101529.81;;;13.23;100.00
27294;BME280;14785;52.556;13.430;2023-05-07T06:37:04;101538.81;;;13.05;100.00
27294;BME280;14785;52.556;13.430;2023-05-07T06:39:30;101542.16;;;12.80;100.00
27294;BME280;14785;52.556;13.430;2023-05-07T06:41:55;101556.84;;;12.66;100.00
27294;BME280;14785;52.556;13.430;2023-05-07T06:44:21;101553.69;;;13.25;100.00
27294;BME280;14785;52.556;13.430;2023-05-07T06:46:46;101550.22;;;13.42;100.00
27294;BME280;14785;52.556;13.430;2023-05-07T06:49:13;101563.72;;;12.96;100.00
27294;BME280;14785;52.556;13.430;2023-05-07T06:51:38;101549.88;;;13.10;100.00
27294;BME280;14785;52.556;13.430;2023-05-07T06:54:05;101564.25;;;12.72;100.00
27294;BME280;14785;52.556;13.430;2023-05-07T06:56:31;101561.06;;;13.23;100.00
27294;BME280;14785;52.556;13.430;2023-05-07T06:58:56;101564.19;;;13.18;100.00
27294;BME280;14785;52.556;13.430;2023-05-07T07:01:22;101564.94;;;13.28;100.00
27294;BME280;14785;52.556;13.430;2023-05-07T07:03:47;101563.31;;;13.53;100.00
27294;BME280;14785;52.556;13.430;2023-05-07T07:06:13;101561.34;;;13.20;100.00
27294;BME280;14785;52.556;13.430;2023-05-07T07:08:39;101567.91;;;13.08;100.00
27294;BME280;14785;52.556;13.430;2023-05-07T07:11:05;101570.94;;;13.83;100.00
27294;BME280;14785;52.556;13.430;2023-05-07T07:13:30;101570.31;;;13.89;100.00
27294;BME280;14785;52.556;13.430;2023-05-07T07:15:56;101565.91;;;13.80;100.00
27294;BME280;14785;52.556;13.430;2023-05-07T07:18:21;101563.63;;;13.50;100.00
27294;BME280;14785;52.556;13.430;2023-05-07T07:20:47;101565.84;;;13.72;100.00
27294;BME280;14785;52.556;13.430;2023-05-07T07:23:13;101564.53;;;13.76;100.00
27294;BME280;14785;52.556;13.430;2023-05-07T07:25:38;101573.44;;;14.02;100.00
27294;BME280;14785;52.556;13.430;2023-05-07T07:28:05;101575.06;;;13.78;100.00
27294;BME280;14785;52.556;13.430;2023-05-07T07:30:31;101574.31;;;13.15;100.00
27294;BME280;14785;52.556;13.430;2023-05-07T07:32:57;101577.16;;;13.31;100.00
27294;BME280;14785;52.556;13.430;2023-05-07T07:35:31;101569.75;;;13.60;100.00
27294;BME280;14785;52.556;13.430;2023-05-07T07:37:57;101572.31;;;13.87;100.00
27294;BME280;14785;52.556;13.430;2023-05-07T07:40:22;101567.09;;;13.60;100.00
27294;BME280;14785;52.556;13.430;2023-05-07T07:42:48;101566.00;;;13.71;100.00
27294;BME280;14785;52.556;13.430;2023-05-07T07:45:14;101564.34;;;13.95;100.00
27294;BME280;14785;52.556;13.430;2023-05-07T07:47:40;101563.25;;;14.23;100.00
27294;BME280;14785;52.556;13.430;2023-05-07T07:50:06;101550.50;;;13.57;100.00
27294;BME280;14785;52.556;13.430;2023-05-07T07:52:32;101556.06;;;13.45;100.00
27294;BME280;14785;52.556;13.430;2023-05-07T07:54:58;101557.00;;;13.97;100.00
27294;BME280;14785;52.556;13.430;2023-05-07T07:57:23;101551.69;;;13.62;100.00
27294;BME280;14785;52.556;13.430;2023-05-07T07:59:49;101558.13;;;13.69;100.00
27294;BME280;14785;52.556;13.430;2023-05-07T08:02:15;101553.78;;;14.11;100.00
27294;BME280;14785;52.556;13.430;2023-05-07T08:04:41;101554.06;;;13.65;100.00
27294;BME280;14785;52.556;13.430;2023-05-07T08:07:09;101556.59;;;13.84;100.00
27294;BME280;14785;52.556;13.430;2023-05-07T08:09:34;101563.53;;;14.20;100.00
27294;BME280;14785;52.556;13.430;2023-05-07T08:12:01;101569.03;;;14.19;100.00
27294;BME280;14785;52.556;13.430;2023-05-07T08:14:26;101559.16;;;13.94;100.00
27294;BME280;14785;52.556;13.430;2023-05-07T08:16:53;101552.66;;;13.96;100.00
27294;BME280;14785;52.556;13.430;2023-05-07T08:19:19;101557.22;;;13.78;100.00
27294;BME280;14785;52.556;13.430;2023-05-07T08:21:45;101563.72;;;14.01;100.00
27294;BME280;14785;52.556;13.430;2023-05-07T08:24:13;101557.81;;;14.15;100.00
27294;BME280;14785;52.556;13.430;2023-05-07T08:26:39;101562.16;;;14.16;100.00
27294;BME280;14785;52.556;13.430;2023-05-07T08:29:04;101556.47;;;14.19;100.00
27294;BME280;14785;52.556;13.430;2023-05-07T08:31:33;101557.75;;;14.07;100.00
27294;BME280;14785;52.556;13.430;2023-05-07T08:33:59;101572.78;;;14.26;100.00
27294;BME280;14785;52.556;13.430;2023-05-07T08:36:25;101567.00;;;14.13;100.00
27294;BME280;14785;52.556;13.430;2023-05-07T08:38:54;101569.47;;;14.65;100.00
27294;BME280;14785;52.556;13.430;2023-05-07T08:41:20;101572.19;;;14.73;100.00
27294;BME280;14785;52.556;13.430;2023-05-07T08:43:50;101567.53;;;14.75;100.00
27294;BME280;14785;52.556;13.430;2023-05-07T08:46:20;101573.72;;;14.42;100.00
27294;BME280;14785;52.556;13.430;2023-05-07T08:48:50;101566.09;;;14.55;100.00
27294;BME280;14785;52.556;13.430;2023-05-07T08:51:19;101568.22;;;14.85;100.00
27294;BME280;14785;52.556;13.430;2023-05-07T08:53:46;101563.56;;;14.87;100.00
27294;BME280;14785;52.556;13.430;2023-05-07T08:56:14;101577.72;;;15.21;100.00
27294;BME280;14785;52.556;13.430;2023-05-07T08:58:41;101574.13;;;15.55;100.00
27294;BME280;14785;52.556;13.430;2023-05-07T09:01:09;101576.31;;;15.59;100.00
27294;BME280;14785;52.556;13.430;2023-05-07T09:03:37;101582.75;;;15.24;100.00
27294;BME280;14785;52.556;13.430;2023-05-07T09:06:03;101581.53;;;15.85;100.00
27294;BME280;14785;52.556;13.430;2023-05-07T09:08:28;101582.84;;;16.05;100.00
27294;BME280;14785;52.556;13.430;2023-05-07T09:10:54;101577.81;;;16.02;100.00
27294;BME280;14785;52.556;13.430;2023-05-07T09:13:25;101581.44;;;16.49;100.00
27294;BME280;14785;52.556;13.430;2023-05-07T09:15:50;101585.28;;;16.54;100.00
27294;BME280;14785;52.556;13.430;2023-05-07T09:18:17;101584.13;;;16.49;100.00
27294;BME280;14785;52.556;13.430;2023-05-07T09:20:43;101589.38;;;16.89;100.00
27294;BME280;14785;52.556;13.430;2023-05-07T09:23:08;101583.91;;;16.66;100.00
27294;BME280;14785;52.556;13.430;2023-05-07T09:25:36;101590.13;;;16.67;100.00
27294;BME280;14785;52.556;13.430;2023-05-07T09:28:03;101596.91;;;16.93;100.00
27294;BME280;14785;52.556;13.430;2023-05-07T09:30:33;101595.41;;;16.12;100.00
27294;BME280;14785;52.556;13.430;2023-05-07T09:33:00;101588.72;;;15.68;100.00
27294;BME280;14785;52.556;13.430;2023-05-07T09:35:26;101591.75;;;15.81;100.00
27294;BME280;14785;52.556;13.430;2023-05-07T09:37:59;101586.19;;;15.59;100.00
27294;BME280;14785;52.556;13.430;2023-05-07T09:40:29;101583.19;;;15.70;100.00
27294;BME280;14785;52.556;13.430;2023-05-07T09:42:56;101589.88;;;15.90;100.00
27294;BME280;14785;52.556;13.430;2023-05-07T09:45:22;101581.16;;;15.72;100.00
27294;BME280;14785;52.556;13.430;2023-05-07T09:47:54;101589.53;;;15.69;100.00
27294;BME280;14785;52.556;13.430;2023-05-07T09:50:23;101584.84;;;15.63;100.00
27294;BME280;14785;52.556;13.430;2023-05-07T09:52:52;101594.59;;;15.80;100.00
27294;BME280;14785;52.556;13.430;2023-05-07T09:55:17;101594.25;;;15.83;100.00
27294;BME280;14785;52.556;13.430;2023-05-07T09:57:43;101593.91;;;15.70;100.00
27294;BME280;14785;52.556;13.430;2023-05-07T10:00:10;101599.63;;;15.91;100.00
27294;BME280;14785;52.556;13.430;2023-05-07T10:02:37;101610.00;;;16.02;100.00
27294;BME280;14785;52.556;13.430;2023-05-07T10:05:12;101607.63;;;16.39;100.00
27294;BME280;14785;52.556;13.430;2023-05-07T10:07:38;101607.22;;;16.74;100.00
27294;BME280;14785;52.556;13.430;2023-05-07T10:10:04;101604.94;;;16.47;100.00
27294;BME280;14785;52.556;13.430;2023-05-07T10:12:32;101600.22;;;16.41;100.00
27294;BME280;14785;52.556;13.430;2023-05-07T10:15:06;101597.50;;;16.73;100.00
27294;BME280;14785;52.556;13.430;2023-05-07T10:17:35;101599.88;;;16.60;100.00
27294;BME280;14785;52.556;13.430;2023-05-07T10:20:00;101603.19;;;17.17;100.00
27294;BME280;14785;52.556;13.430;2023-05-07T10:22:27;101605.94;;;16.38;100.00
27294;BME280;14785;52.556;13.430;2023-05-07T10:24:56;101608.78;;;16.36;100.00
27294;BME280;14785;52.556;13.430;2023-05-07T10:27:25;101603.50;;;16.83;100.00
27294;BME280;14785;52.556;13.430;2023-05-07T10:29:54;101600.44;;;17.25;100.00
27294;BME280;14785;52.556;13.430;2023-05-07T10:32:48;101603.09;;;17.33;100.00
27294;BME280;14785;52.556;13.430;2023-05-07T10:35:24;101602.59;;;17.29;100.00
27294;BME280;14785;52.556;13.430;2023-05-07T10:37:51;101608.63;;;17.00;100.00
27294;BME280;14785;52.556;13.430;2023-05-07T10:40:18;101604.00;;;17.17;100.00
27294;BME280;14785;52.556;13.430;2023-05-07T10:43:04;101601.69;;;18.12;100.00
27294;BME280;14785;52.556;13.430;2023-05-07T10:45:30;101600.66;;;18.79;100.00
27294;BME280;14785;52.556;13.430;2023-05-07T10:48:22;101596.84;;;18.88;100.00
27294;BME280;14785;52.556;13.430;2023-05-07T10:50:48;101604.13;;;19.09;100.00
27294;BME280;14785;52.556;13.430;2023-05-07T10:55:42;101608.28;;;18.61;100.00
27294;BME280;14785;52.556;13.430;2023-05-07T10:58:29;101617.16;;;17.73;100.00
27294;BME280;14785;52.556;13.430;2023-05-07T11:01:05;101607.31;;;18.54;100.00
27294;BME280;14785;52.556;13.430;2023-05-07T11:03:30;101606.56;;;18.60;100.00
27294;BME280;14785;52.556;13.430;2023-05-07T11:06:15;101598.66;;;19.95;100.00
27294;BME280;14785;52.556;13.430;2023-05-07T11:11:16;101605.84;;;19.67;100.00
27294;BME280;14785;52.556;13.430;2023-05-07T11:13:45;101602.72;;;19.84;100.00
27294;BME280;14785;52.556;13.430;2023-05-07T11:16:22;101609.44;;;20.37;100.00
27294;BME280;14785;52.556;13.430;2023-05-07T11:18:55;101600.81;;;20.06;100.00
27294;BME280;14785;52.556;13.430;2023-05-07T11:21:41;101597.13;;;19.86;100.00
27294;BME280;14785;52.556;13.430;2023-05-07T11:24:08;101595.19;;;19.80;100.00
27294;BME280;14785;52.556;13.430;2023-05-07T11:26:48;101603.44;;;20.75;100.00
27294;BME280;14785;52.556;13.430;2023-05-07T11:29:18;101593.38;;;21.51;100.00
27294;BME280;14785;52.556;13.430;2023-05-07T11:31:50;101589.28;;;21.87;98.42
27294;BME280;14785;52.556;13.430;2023-05-07T11:34:23;101591.75;;;21.82;100.00
27294;BME280;14785;52.556;13.430;2023-05-07T11:36:49;101586.34;;;22.34;96.44
27294;BME280;14785;52.556;13.430;2023-05-07T11:39:27;101578.81;;;22.63;93.03
27294;BME280;14785;52.556;13.430;2023-05-07T11:41:52;101589.28;;;21.87;91.78
27294;BME280;14785;52.556;13.430;2023-05-07T11:44:18;101589.44;;;22.64;94.32
27294;BME280;14785;52.556;13.430;2023-05-07T11:46:44;101585.47;;;22.60;88.33
27294;BME280;14785;52.556;13.430;2023-05-07T11:49:10;101582.78;;;22.27;96.33
27294;BME280;14785;52.556;13.430;2023-05-07T11:51:36;101588.50;;;20.86;94.89
27294;BME280;14785;52.556;13.430;2023-05-07T11:54:03;101588.28;;;20.47;96.61
27294;BME280;14785;52.556;13.430;2023-05-07T11:56:29;101582.06;;;19.98;100.00
27294;BME280;14785;52.556;13.430;2023-05-07T11:58:54;101602.81;;;21.14;98.24
27294;BME280;14785;52.556;13.430;2023-05-07T12:01:20;101595.34;;;21.23;100.00
27294;BME280;14785;52.556;13.430;2023-05-07T12:03:45;101587.84;;;21.18;98.61
27294;BME280;14785;52.556;13.430;2023-05-07T12:06:13;101585.00;;;21.46;95.04
27294;BME280;14785;52.556;13.430;2023-05-07T12:08:40;101584.97;;;22.96;91.30
27294;BME280;14785;52.556;13.430;2023-05-07T12:11:12;101582.53;;;21.57;91.06
27294;BME280;14785;52.556;13.430;2023-05-07T12:13:40;101586.03;;;20.02;97.07
27294;BME280;14785;52.556;13.430;2023-05-07T12:16:07;101592.63;;;20.14;100.00
27294;BME280;14785;52.556;13.430;2023-05-07T12:18:34;101590.75;;;22.22;91.83
27294;BME280;14785;52.556;13.430;2023-05-07T12:21:00;101586.19;;;23.00;84.45
27294;BME280;14785;52.556;13.430;2023-05-07T12:23:26;101596.91;;;22.75;87.71
27294;BME280;14785;52.556;13.430;2023-05-07T12:25:51;101582.34;;;23.20;89.76
27294;BME280;14785;52.556;13.430;2023-05-07T12:28:18;101591.03;;;24.04;79.69
27294;BME280;14785;52.556;13.430;2023-05-07T12:30:46;101596.22;;;23.81;80.07
27294;BME280;14785;52.556;13.430;2023-05-07T12:33:16;101589.06;;;23.55;79.49